createdAt,value
2022-11-03T00:01:45.519Z,7.10
2022-11-03T00:06:10.772Z,7.10
2022-11-03T00:10:35.977Z,7.10
2022-11-03T00:15:01.171Z,7.10
2022-11-03T00:19:26.375Z,7.00
2022-11-03T00:23:52.068Z,7.00
2022-11-03T00:28:17.341Z,7.00
2022-11-03T00:32:42.570Z,7.00
2022-11-03T00:37:07.860Z,7.00
2022-11-03T00:41:33.560Z,7.00
2022-11-03T00:45:59.350Z,7.00
2022-11-03T00:50:24.575Z,6.90
2022-11-03T00:54:54.241Z,6.90
2022-11-03T00:59:20.714Z,6.90
2022-11-03T01:04:08.187Z,6.90
2022-11-03T01:08:35.178Z,6.90
2022-11-03T01:13:02.064Z,7.00
2022-11-03T01:17:29.170Z,6.90
2022-11-03T01:21:54.668Z,7.00
2022-11-03T01:26:19.897Z,7.00
2022-11-03T01:30:45.119Z,7.00
2022-11-03T01:35:10.326Z,7.00
2022-11-03T01:39:35.595Z,7.00
2022-11-03T01:44:10.059Z,7.00
2022-11-03T01:48:38.166Z,7.00
2022-11-03T01:53:03.619Z,7.00
2022-11-03T01:57:56.738Z,7.10
2022-11-03T02:02:22.121Z,7.10
2022-11-03T02:06:55.106Z,7.10
2022-11-03T02:11:38.761Z,7.20
2022-11-03T02:16:04.188Z,7.20
2022-11-03T02:20:31.968Z,7.20
2022-11-03T02:25:46.680Z,7.20
2022-11-03T02:30:12.119Z,7.20
2022-11-03T02:35:00.978Z,7.20
2022-11-03T02:39:35.484Z,7.30
2022-11-03T02:44:01.962Z,7.30
2022-11-03T02:48:27.256Z,7.30
2022-11-03T02:52:52.723Z,7.40
2022-11-03T02:57:23.917Z,7.40
2022-11-03T03:02:03.769Z,7.40
2022-11-03T03:06:54.282Z,7.50
2022-11-03T03:11:37.782Z,7.60
2022-11-03T03:16:12.072Z,7.50
2022-11-03T03:20:52.513Z,7.60
2022-11-03T03:25:30.945Z,7.60
2022-11-03T03:30:04.899Z,7.60
2022-11-03T03:34:35.246Z,7.60
2022-11-03T03:39:05.935Z,7.60
2022-11-03T03:43:34.256Z,7.70
2022-11-03T03:48:00.222Z,7.70
2022-11-03T03:52:26.187Z,7.80
2022-11-03T03:57:04.336Z,7.80
2022-11-03T04:01:29.702Z,7.80
2022-11-03T04:05:55.009Z,7.80
2022-11-03T04:10:23.330Z,7.80
2022-11-03T04:15:07.221Z,7.80
2022-11-03T04:19:50.834Z,7.90
2022-11-03T04:24:16.215Z,7.80
2022-11-03T04:28:42.432Z,7.80
2022-11-03T04:33:20.494Z,7.80
2022-11-03T04:37:51.258Z,7.80
2022-11-03T04:42:21.103Z,7.80
2022-11-03T04:46:46.919Z,7.80
2022-11-03T04:51:26.954Z,7.70
2022-11-03T04:55:54.217Z,8.40
2022-11-03T05:00:20.323Z,8.00
2022-11-03T05:04:45.957Z,7.80
2022-11-03T05:09:24.762Z,7.70
2022-11-03T05:13:51.351Z,7.70
2022-11-03T05:18:22.398Z,7.70
2022-11-03T05:22:47.619Z,7.60
2022-11-03T05:27:21.705Z,7.60
2022-11-03T05:31:53.831Z,7.60
2022-11-03T05:36:25.584Z,7.60
2022-11-03T05:40:53.973Z,7.60
2022-11-03T05:45:34.039Z,7.50
2022-11-03T05:50:16.484Z,7.60
2022-11-03T05:54:41.781Z,7.50
2022-11-03T05:59:11.853Z,7.60
2022-11-03T06:03:37.459Z,7.90
2022-11-03T06:08:14.390Z,7.70
2022-11-03T06:12:39.704Z,7.60
2022-11-03T06:17:24.165Z,7.60
2022-11-03T06:21:52.101Z,7.60
2022-11-03T06:26:23.192Z,7.60
2022-11-03T06:30:50.642Z,7.50
2022-11-03T06:35:18.090Z,7.60
2022-11-03T06:39:43.342Z,7.60
2022-11-03T06:44:25.955Z,7.60
2022-11-03T06:48:58.296Z,7.60
2022-11-03T06:53:31.668Z,7.60
2022-11-03T06:58:29.687Z,7.70
2022-11-03T07:03:39.413Z,7.70
2022-11-03T07:08:22.460Z,7.80
2022-11-03T07:12:47.795Z,7.90
2022-11-03T07:17:21.761Z,7.90
2022-11-03T07:21:51.001Z,8.00
2022-11-03T07:26:16.379Z,8.10
2022-11-03T07:30:42.981Z,8.10
2022-11-03T07:36:00.438Z,8.20
2022-11-03T07:40:25.692Z,8.30
2022-11-03T07:44:52.915Z,8.40
2022-11-03T07:49:36.363Z,8.50
2022-11-03T07:54:30.507Z,8.60
2022-11-03T07:59:01.717Z,8.60
2022-11-03T08:03:41.754Z,8.70
2022-11-03T08:08:07.187Z,8.80
2022-11-03T08:12:32.750Z,8.90
2022-11-03T08:16:58.088Z,9.00
2022-11-03T08:21:23.577Z,9.10
2022-11-03T08:25:48.839Z,9.20
2022-11-03T08:30:14.384Z,9.30
2022-11-03T08:34:39.832Z,9.40
2022-11-03T08:39:05.715Z,9.50
2022-11-03T08:43:31.156Z,9.50
2022-11-03T08:47:56.772Z,9.60
2022-11-03T08:52:22.120Z,9.80
2022-11-03T08:56:48.918Z,9.80
2022-11-03T09:01:14.536Z,9.90
2022-11-03T09:05:40.223Z,10.00
2022-11-03T09:10:28.350Z,10.10
2022-11-03T09:14:53.577Z,10.20
2022-11-03T09:19:18.841Z,10.30
2022-11-03T09:23:44.071Z,10.30
2022-11-03T09:28:09.691Z,10.40
2022-11-03T09:32:35.201Z,10.60
2022-11-03T09:37:00.389Z,10.70
2022-11-03T09:41:28.136Z,10.80
2022-11-03T09:46:08.561Z,10.90
2022-11-03T09:50:33.943Z,11.00
2022-11-03T09:54:59.837Z,11.10
2022-11-03T09:59:25.390Z,11.20
2022-11-03T10:03:51.057Z,11.30
2022-11-03T10:08:37.347Z,11.40
2022-11-03T10:13:02.696Z,11.60
2022-11-03T10:17:31.024Z,11.60
2022-11-03T10:21:56.370Z,11.80
2022-11-03T10:26:22.465Z,11.90
2022-11-03T10:31:17.548Z,12.00
2022-11-03T10:35:43.024Z,12.20
2022-11-03T10:40:50.846Z,12.20
2022-11-03T10:45:20.386Z,12.40
2022-11-03T10:49:45.866Z,12.50
2022-11-03T10:54:15.001Z,12.60
2022-11-03T10:58:40.119Z,12.70
2022-11-03T11:03:06.744Z,12.80
2022-11-03T11:07:40.604Z,12.90
2022-11-03T11:12:25.299Z,13.10
2022-11-03T11:16:56.072Z,13.30
2022-11-03T11:21:21.243Z,13.50
2022-11-03T11:26:18.128Z,13.60
2022-11-03T11:30:56.814Z,13.80
2022-11-03T11:35:27.821Z,13.80
2022-11-03T11:39:52.935Z,13.90
2022-11-03T11:44:40.106Z,14.00
2022-11-03T11:49:05.217Z,14.10
2022-11-03T11:53:39.157Z,14.20
2022-11-03T11:58:13.454Z,14.30
2022-11-03T12:02:38.702Z,14.40
2022-11-03T12:07:03.952Z,14.40
2022-11-03T12:12:08.385Z,14.50
2022-11-03T12:16:38.048Z,14.50
2022-11-03T12:21:25.821Z,14.50
2022-11-03T12:25:51.059Z,14.50
2022-11-03T12:30:19.204Z,14.50
2022-11-03T12:34:44.751Z,14.60
2022-11-03T12:39:10.460Z,14.60
2022-11-03T12:43:35.694Z,14.70
2022-11-03T12:48:00.999Z,14.70
2022-11-03T12:52:26.258Z,14.70
2022-11-03T12:56:53.248Z,14.70
2022-11-03T13:01:18.933Z,14.70
2022-11-03T13:05:44.371Z,14.60
2022-11-03T13:10:10.656Z,14.60
2022-11-03T13:14:35.891Z,14.60
2022-11-03T13:19:01.563Z,14.60
2022-11-03T13:23:26.919Z,14.60
2022-11-03T13:27:54.545Z,14.60
2022-11-03T13:32:20.071Z,14.40
2022-11-03T13:36:45.427Z,14.40
2022-11-03T13:41:10.733Z,14.40
2022-11-03T13:45:36.119Z,14.50
2022-11-03T13:50:14.198Z,14.50
2022-11-03T13:59:25.577Z,14.40
2022-11-03T14:08:36.984Z,14.20
2022-11-03T14:13:02.225Z,14.20
2022-11-03T14:17:28.151Z,14.20
2022-11-03T14:21:53.557Z,14.20
2022-11-03T14:26:23.780Z,14.20
2022-11-03T14:31:01.186Z,14.10
2022-11-03T14:35:26.433Z,14.10
2022-11-03T14:39:51.707Z,14.00
2022-11-03T14:44:17.123Z,14.00
2022-11-03T14:48:42.558Z,13.90
2022-11-03T14:53:07.862Z,13.80
2022-11-03T14:57:33.301Z,13.80
2022-11-03T15:01:59.464Z,13.80
2022-11-03T15:06:25.169Z,13.70
2022-11-03T15:10:51.089Z,13.70
2022-11-03T15:15:16.412Z,13.60
2022-11-03T15:19:41.657Z,13.50
2022-11-03T15:28:52.629Z,13.40
2022-11-03T15:33:17.844Z,13.30
2022-11-03T15:37:43.070Z,13.30
2022-11-03T15:42:08.398Z,13.30
2022-11-03T15:46:33.661Z,13.20
2022-11-03T15:50:59.000Z,13.10
2022-11-03T15:55:24.440Z,13.10
2022-11-03T15:59:51.565Z,13.00
2022-11-03T16:04:18.288Z,12.90
2022-11-03T16:08:43.588Z,12.90
2022-11-03T16:13:08.811Z,12.80
2022-11-03T16:17:34.094Z,12.80
2022-11-03T16:21:59.290Z,12.70
2022-11-03T16:26:24.519Z,12.70
2022-11-03T16:30:54.021Z,12.60
2022-11-03T16:35:20.715Z,12.60
2022-11-03T16:39:45.959Z,12.50
2022-11-03T16:44:11.195Z,12.50
2022-11-03T16:48:36.507Z,12.50
2022-11-03T16:53:02.082Z,12.40
2022-11-03T16:57:27.514Z,12.40
2022-11-03T17:01:53.628Z,12.40
2022-11-03T17:06:18.962Z,12.30
2022-11-03T17:10:44.211Z,12.30
2022-11-03T17:15:10.032Z,12.30
2022-11-03T17:19:35.414Z,12.20
2022-11-03T17:24:01.113Z,12.20
2022-11-03T17:28:26.895Z,12.20
2022-11-03T17:33:17.453Z,12.20
2022-11-03T17:37:42.912Z,12.20
2022-11-03T17:42:17.206Z,12.10
2022-11-03T17:46:42.501Z,12.10
2022-11-03T17:51:12.185Z,12.10
2022-11-03T17:55:38.442Z,12.10
2022-11-03T18:00:05.040Z,12.10
2022-11-03T18:04:30.271Z,12.00
2022-11-03T18:08:55.573Z,12.10
2022-11-03T18:13:30.109Z,12.00
2022-11-03T18:17:59.259Z,12.00
2022-11-03T18:22:24.665Z,12.00
2022-11-03T18:26:49.933Z,11.90
2022-11-03T18:31:33.856Z,11.90
2022-11-03T18:36:04.473Z,11.90
2022-11-03T18:40:32.128Z,11.80
2022-11-03T18:45:02.424Z,11.80
2022-11-03T18:49:28.034Z,11.80
2022-11-03T18:53:53.355Z,11.70
2022-11-03T18:58:23.300Z,11.70
2022-11-03T19:02:50.429Z,11.60
2022-11-03T19:07:28.961Z,11.60
2022-11-03T19:11:57.410Z,11.60
2022-11-03T19:16:24.453Z,11.50
2022-11-03T19:20:49.670Z,11.50
2022-11-03T19:25:15.603Z,11.40
2022-11-03T19:29:41.295Z,11.40
2022-11-03T19:34:11.329Z,11.40
2022-11-03T19:38:36.549Z,11.30
2022-11-03T19:43:01.790Z,11.30
2022-11-03T19:47:34.558Z,11.30
2022-11-03T19:52:00.777Z,11.30
2022-11-03T19:56:26.093Z,11.20
2022-11-03T20:00:52.382Z,11.20
2022-11-03T20:05:17.710Z,11.20
2022-11-03T20:09:43.683Z,11.20
2022-11-03T20:14:24.206Z,11.20
2022-11-03T20:18:50.085Z,11.10
2022-11-03T20:23:28.891Z,11.10
2022-11-03T20:27:56.235Z,11.10
2022-11-03T20:32:21.478Z,11.10
2022-11-03T20:36:48.131Z,11.10
2022-11-03T20:41:15.725Z,11.10
2022-11-03T20:45:41.014Z,11.10
2022-11-03T20:50:08.086Z,11.10
2022-11-03T20:54:33.694Z,11.10
2022-11-03T20:58:59.414Z,11.10
2022-11-03T21:03:53.681Z,11.10
2022-11-03T21:08:14.100Z,11.10
2022-11-03T21:12:39.676Z,11.10
2022-11-03T21:17:24.947Z,11.10
2022-11-03T21:21:50.299Z,11.10
2022-11-03T21:26:15.563Z,11.10
2022-11-03T21:30:40.795Z,11.10
2022-11-03T21:35:08.139Z,11.10
2022-11-03T21:39:33.683Z,11.10
2022-11-03T21:44:16.990Z,11.10
2022-11-03T21:49:01.080Z,11.10
2022-11-03T21:53:31.928Z,11.10
2022-11-03T21:57:57.317Z,11.10
2022-11-03T22:02:22.703Z,11.10
2022-11-03T22:06:48.000Z,11.20
2022-11-03T22:11:21.940Z,11.20
2022-11-03T22:16:05.525Z,11.20
2022-11-03T22:20:49.344Z,11.20
2022-11-03T22:25:35.834Z,11.30
2022-11-03T22:30:19.932Z,11.30
2022-11-03T22:35:03.564Z,11.30
2022-11-03T22:39:47.131Z,11.30
2022-11-03T22:44:30.760Z,11.30
2022-11-03T22:48:56.089Z,11.30
2022-11-03T22:53:40.157Z,11.30
2022-11-03T22:58:05.352Z,11.40
2022-11-03T23:02:30.648Z,11.40
2022-11-03T23:06:55.905Z,11.40
2022-11-03T23:11:29.214Z,11.40
2022-11-03T23:15:54.503Z,11.50
2022-11-03T23:20:38.102Z,11.40
2022-11-03T23:25:03.391Z,11.40
2022-11-03T23:29:29.561Z,11.50
2022-11-03T23:33:55.199Z,11.50
2022-11-03T23:38:20.445Z,11.50
2022-11-03T23:42:45.693Z,11.50
2022-11-03T23:47:29.476Z,11.50
2022-11-03T23:51:54.887Z,11.40
2022-11-03T23:56:43.564Z,11.40
